Aurora, CO (80015)

4:55 AM MDT on April 28, 2015 (GMT -0600)
Piney Creek | | Change Station
CLOSE
Current Station
Personal Weather Station
Location: Centennial, CO
Elevation: 5795 ft
Nearby Weather Stations

Elev 5795 ft 39.62 °N, 104.80 °W | Updated 15 seconds ago

Overcast
Overcast
37.2 °F
Feels Like 37 °F
N
0.0
Wind Variable Wind from NE
Gusts 0.0 mph

Today
High -- | Low -- °F
--% Chance of Precip.
Yesterday
High -- | Low -- °F
Precip. -- in
6:03 AM 7:50 PM
Waxing Gibbous, 73% visible
Pressure 30.35 in
Visibility 8.0 miles
Clouds Few 900 ft
Scattered Clouds 2300 ft
Overcast 3500 ft
Windchill 37 °F
Dew Point 35 °F
Humidity 93%
Rainfall 0.00 in
Snow Depth Not available.
UV 0 out of 12
Pollen 3.20 out of 12
Air Quality Not available.
Flu Activity Sporadic
SPECI KAPA 281019Z 00000KT 8SM FEW009 SCT023 OVC035 04/03 A3035 RMK AO2 T00440033

More Conditions Fewer Conditions

Pressure 30.35 in
Visibility 8.0 miles
Clouds Few 900 ft
Scattered Clouds 2300 ft
Overcast 3500 ft
Windchill 37 °F
Dew Point 35 °F
Humidity 93%
Rainfall 0.00 in
Snow Depth Not available.
UV 0 out of 12
Pollen 3.20 out of 12
Air Quality Not available.
Flu Activity Sporadic
SPECI KAPA 281019Z 00000KT 8SM FEW009 SCT023 OVC035 04/03 A3035 RMK AO2 T00440033

More Conditions Fewer Conditions

10-Day Weather Forecast

Almanac

Astronomy

Apr. 28, 2015 Rise Set
Actual Time
Civil Twilight
Nautical Twilight
Astronomical Twilight
Moon
Length of Visible Light
Length of Day
Tomorrow will be .
, % of the Moon is Illuminated

Today's Extremes

State Highs State Lows

Community

WunderPhotos

Upload Photos

1,817,603 photos uploaded!

WunderBlogs® & News

Nearby

Air Quality

  Air Quality AQ Index Pollutant
Not available.

Snow Depth

Station Depth Elevation

Earthquake Activity

City Distance Mag. Time & Date
Minimum magnitude displayed is 2.5.

Coastal Water Temperatures

Place Temperature

Stations

Nearby Weather Stations

Station Location Temp. Windchill Dew Point Humidity Wind Precip. Elev Updated Type